Time;durP1;ratioP1;P1;durP2;ratioP2;P2;SDS_P1;SDS_P2;PMS_P1;PMS_P2;Temp;Humidity;BMP_temperature;BMP_pressure;BME280_temperature;BME280_humidity;BME280_pressure;Samples;Min_cycle;Max_cycle;Signal;HPM_P1;HPM_P2
2021/10/09 00:02:18;;;;;;;64.78;39.90;;;;;;;;;;5062414;28;20314;-68
2021/10/09 00:04:44;;;;;;;80.05;40.58;;;;;;;;;;5063900;28;20131;-68
2021/10/09 00:07:11;;;;;;;62.13;39.78;;;;;;;;;;5065017;28;20508;-68
2021/10/09 00:09:37;;;;;;;55.85;37.55;;;;;;;;;;5066400;28;20135;-68
2021/10/09 00:12:04;;;;;;;61.20;37.22;;;;;;;;;;5059625;28;20519;-68
2021/10/09 00:14:30;;;;;;;61.58;38.55;;;;;;;;;;5065202;28;20132;-68
2021/10/09 00:16:57;;;;;;;61.45;38.35;;;;;;;;;;5064231;28;20142;-68
2021/10/09 00:19:23;;;;;;;67.50;38.40;;;;;;;;;;5063532;28;20088;-68
2021/10/09 00:21:50;;;;;;;62.78;37.67;;;;;;;;;;5057953;28;20079;-68
2021/10/09 00:24:18;;;;;;;59.20;36.53;;;;;;;;;;5063047;28;20083;-68
2021/10/09 00:26:45;;;;;;;63.63;37.97;;;;;;;;;;5060689;28;20048;-67
2021/10/09 00:29:11;;;;;;;61.00;38.55;;;;;;;;;;5063804;28;20052;-68
2021/10/09 00:31:38;;;;;;;64.72;36.83;;;;;;;;;;5066119;28;20044;-68
2021/10/09 00:34:05;;;;;;;61.63;38.05;;;;;;;;;;5063850;28;20135;-68
2021/10/09 00:36:32;;;;;;;62.55;38.60;;;;;;;;;;5065029;28;20068;-68
2021/10/09 00:38:58;;;;;;;60.53;39.28;;;;;;;;;;5061109;28;20072;-68
2021/10/09 00:41:25;;;;;;;65.15;37.88;;;;;;;;;;5060342;28;20584;-68
2021/10/09 00:43:53;;;;;;;67.70;37.55;;;;;;;;;;5066868;28;20080;-68
2021/10/09 00:46:19;;;;;;;66.53;38.40;;;;;;;;;;5059290;28;20168;-68
2021/10/09 00:48:46;;;;;;;67.32;37.85;;;;;;;;;;5060589;28;20445;-68
2021/10/09 00:51:12;;;;;;;66.32;38.83;;;;;;;;;;5056021;28;20151;-68
2021/10/09 00:53:40;;;;;;;64.32;37.90;;;;;;;;;;5059289;28;20076;-68
2021/10/09 00:56:07;;;;;;;65.82;38.78;;;;;;;;;;5059349;28;20053;-68
2021/10/09 00:58:36;;;;;;;61.95;37.47;;;;;;;;;;5067023;28;20090;-68
2021/10/09 01:01:03;;;;;;;71.72;38.42;;;;;;;;;;5061345;28;20083;-68
2021/10/09 01:03:30;;;;;;;68.07;39.03;;;;;;;;;;5058772;28;20048;-68
2021/10/09 01:05:57;;;;;;;68.15;38.55;;;;;;;;;;5066194;28;20075;-68
2021/10/09 01:08:23;;;;;;;67.00;37.42;;;;;;;;;;5058734;28;20044;-68
2021/10/09 01:10:49;;;;;;;63.05;36.60;;;;;;;;;;5058295;28;20114;-68
2021/10/09 01:13:16;;;;;;;58.43;36.50;;;;;;;;;;5061020;28;20131;-68
2021/10/09 01:15:44;;;;;;;60.75;34.83;;;;;;;;;;5059353;28;20071;-68
2021/10/09 01:18:10;;;;;;;;;;;;;;;;;;5064188;28;20072;-68
2021/10/09 01:20:43;;;;;;;57.97;35.55;;;;;;;;;;5067882;28;19962;-68
2021/10/09 01:23:10;;;;;;;59.83;37.15;;;;;;;;;;5062567;28;20152;-68
2021/10/09 01:25:36;;;;;;;63.88;37.85;;;;;;;;;;5063186;28;20139;-68
2021/10/09 01:28:03;;;;;;;59.95;34.78;;;;;;;;;;5066148;28;20124;-68
2021/10/09 01:30:33;;;;;;;57.95;37.85;;;;;;;;;;5067210;28;20054;-68
2021/10/09 01:33:00;;;;;;;59.15;36.42;;;;;;;;;;5065713;28;20099;-68
2021/10/09 01:35:27;;;;;;;55.28;34.78;;;;;;;;;;5062200;28;20053;-68
2021/10/09 01:37:53;;;;;;;60.47;37.88;;;;;;;;;;5063945;28;20087;-68
2021/10/09 01:40:19;;;;;;;56.53;36.25;;;;;;;;;;5062627;28;20493;-68
2021/10/09 01:42:46;;;;;;;59.80;36.70;;;;;;;;;;5071051;28;20048;-69
2021/10/09 01:45:12;;;;;;;57.33;35.30;;;;;;;;;;5060622;28;20096;-68
2021/10/09 01:47:40;;;;;;;59.35;35.92;;;;;;;;;;5066173;28;20057;-68
2021/10/09 01:50:10;;;;;;;59.60;35.70;;;;;;;;;;5066865;28;20447;-68
2021/10/09 01:52:36;;;;;;;58.88;34.95;;;;;;;;;;5069220;28;20706;-68
2021/10/09 01:55:03;;;;;;;53.08;33.65;;;;;;;;;;5057203;28;20072;-68
2021/10/09 01:57:30;;;;;;;52.03;32.85;;;;;;;;;;5061912;28;20826;-68
2021/10/09 01:59:56;;;;;;;57.47;34.42;;;;;;;;;;5064647;28;20079;-68
2021/10/09 02:02:22;;;;;;;54.45;34.65;;;;;;;;;;5064628;28;20512;-68
2021/10/09 02:04:49;;;;;;;55.67;33.80;;;;;;;;;;5070098;28;20480;-68
2021/10/09 02:07:22;;;;;;;51.85;32.47;;;;;;;;;;5063231;28;20120;-68
2021/10/09 02:09:48;;;;;;;55.47;34.03;;;;;;;;;;5060966;28;20756;-68
2021/10/09 02:12:15;;;;;;;57.83;33.75;;;;;;;;;;5070306;28;20136;-68
2021/10/09 02:14:47;;;;;;;53.15;33.95;;;;;;;;;;5069740;28;20100;-68
2021/10/09 02:17:50;;;;;;;52.40;32.70;;;;;;;;;;5064224;28;20480;-68
2021/10/09 02:25:45;;;;;;;49.38;30.05;;;;;;;;;;5058857;28;20064;-68
2021/10/09 02:28:13;;;;;;;52.75;33.13;;;;;;;;;;5060061;28;20091;-68
2021/10/09 02:30:39;;;;;;;50.35;32.10;;;;;;;;;;5059466;28;21052;-69
2021/10/09 02:33:06;;;;;;;52.15;31.45;;;;;;;;;;5058435;28;20124;-68
2021/10/09 02:35:33;;;;;;;48.63;30.10;;;;;;;;;;5067052;28;20052;-68
2021/10/09 02:37:59;;;;;;;40.90;28.52;;;;;;;;;;5067241;28;20076;-68
2021/10/09 02:40:27;;;;;;;;;;;;;;;;;;5067088;28;20056;-68
2021/10/09 02:42:53;;;;;;;47.67;26.77;;;;;;;;;;5066616;28;19959;-68
2021/10/09 02:45:19;;;;;;;42.17;26.50;;;;;;;;;;5061369;28;20576;-68
2021/10/09 02:47:46;;;;;;;33.75;25.10;;;;;;;;;;5066108;28;20144;-68
2021/10/09 02:50:14;;;;;;;36.20;23.25;;;;;;;;;;5060814;28;20152;-68
2021/10/09 02:52:40;;;;;;;;;;;;;;;;;;5066859;28;20532;-68
2021/10/09 02:55:07;;;;;;;37.63;25.38;;;;;;;;;;5059802;28;19967;-68
2021/10/09 02:57:34;;;;;;;36.03;24.33;;;;;;;;;;5061890;28;20036;-68
2021/10/09 03:00:00;;;;;;;37.92;24.10;;;;;;;;;;5063612;28;20136;-68
2021/10/09 03:02:28;;;;;;;42.78;24.55;;;;;;;;;;5067275;28;20051;-68
2021/10/09 03:04:54;;;;;;;35.35;23.40;;;;;;;;;;5065300;28;20049;-68
2021/10/09 03:07:23;;;;;;;32.30;24.02;;;;;;;;;;5068792;28;20567;-68
2021/10/09 03:09:50;;;;;;;34.65;23.35;;;;;;;;;;5068086;28;20708;-68
2021/10/09 03:12:16;;;;;;;30.73;23.65;;;;;;;;;;5066288;28;20071;-68
2021/10/09 03:14:42;;;;;;;36.90;23.05;;;;;;;;;;5069494;28;20159;-68
2021/10/09 03:17:10;;;;;;;40.88;23.95;;;;;;;;;;5069326;28;20080;-68
2021/10/09 03:19:36;;;;;;;32.10;23.58;;;;;;;;;;5063640;28;20048;-68
2021/10/09 03:22:03;;;;;;;32.22;22.35;;;;;;;;;;5067187;28;20135;-68
2021/10/09 03:24:30;;;;;;;34.65;22.70;;;;;;;;;;5058738;28;20131;-68
2021/10/09 03:26:56;;;;;;;32.00;23.45;;;;;;;;;;5060101;28;20131;-68
2021/10/09 03:29:23;;;;;;;33.03;21.30;;;;;;;;;;5068324;28;20131;-69
2021/10/09 03:31:49;;;;;;;32.72;22.33;;;;;;;;;;5063502;28;20136;-69
2021/10/09 03:34:16;;;;;;;34.47;22.33;;;;;;;;;;5062668;28;20576;-68
2021/10/09 03:36:42;;;;;;;33.75;22.88;;;;;;;;;;5062467;28;20139;-68
2021/10/09 03:39:13;;;;;;;33.90;23.00;;;;;;;;;;5064216;28;20088;-68
2021/10/09 03:41:43;;;;;;;36.00;22.73;;;;;;;;;;5062752;28;20072;-68
2021/10/09 03:44:09;;;;;;;34.65;23.98;;;;;;;;;;5061121;28;21298;-68
2021/10/09 03:46:43;;;;;;;39.70;22.52;;;;;;;;;;5055016;28;20083;-68
2021/10/09 03:54:50;;;;;;;32.67;21.85;;;;;;;;;;5051253;28;21319;-69
2021/10/09 03:57:17;;;;;;;31.73;22.80;;;;;;;;;;5066055;28;20080;-68
2021/10/09 03:59:43;;;;;;;33.22;23.05;;;;;;;;;;5061142;28;20063;-68
2021/10/09 04:02:10;;;;;;;31.70;23.45;;;;;;;;;;5067531;28;20782;-68
2021/10/09 04:04:37;;;;;;;36.88;23.08;;;;;;;;;;5062683;28;20049;-69
2021/10/09 04:07:03;;;;;;;31.58;21.77;;;;;;;;;;5065706;28;20079;-68
2021/10/09 04:09:30;;;;;;;36.20;24.52;;;;;;;;;;5060118;28;20044;-68
2021/10/09 04:11:56;;;;;;;38.65;24.00;;;;;;;;;;5064831;28;20133;-68
2021/10/09 04:14:23;;;;;;;43.15;26.00;;;;;;;;;;5064924;28;20135;-69
2021/10/09 04:16:49;;;;;;;34.53;25.17;;;;;;;;;;5065157;28;20103;-68
2021/10/09 04:19:16;;;;;;;35.43;24.60;;;;;;;;;;5060778;28;20510;-68
2021/10/09 04:21:44;;;;;;;;;;;;;;;;;;5059473;28;20318;-68
2021/10/09 04:24:10;;;;;;;36.47;25.42;;;;;;;;;;5061018;28;19956;-68
2021/10/09 04:26:37;;;;;;;36.05;24.23;;;;;;;;;;5062371;28;20052;-68
2021/10/09 04:29:03;;;;;;;32.88;24.60;;;;;;;;;;5063792;28;20485;-68
2021/10/09 04:31:30;;;;;;;43.03;26.80;;;;;;;;;;5065829;28;20079;-68
2021/10/09 04:33:56;;;;;;;39.90;27.17;;;;;;;;;;5060204;28;20555;-68
2021/10/09 04:36:23;;;;;;;40.80;26.25;;;;;;;;;;5061645;28;20144;-68
2021/10/09 04:38:49;;;;;;;41.05;25.55;;;;;;;;;;5064435;28;20632;-68
2021/10/09 04:41:16;;;;;;;41.83;26.05;;;;;;;;;;5059261;28;20132;-68
2021/10/09 04:43:42;;;;;;;42.25;25.90;;;;;;;;;;5057997;28;20054;-68
2021/10/09 04:46:09;;;;;;;39.63;25.48;;;;;;;;;;5063371;28;20135;-68
2021/10/09 04:48:36;;;;;;;37.60;24.33;;;;;;;;;;5061648;28;20125;-68
2021/10/09 04:51:02;;;;;;;40.73;26.03;;;;;;;;;;5066019;28;20072;-68
2021/10/09 04:53:29;;;;;;;35.85;26.38;;;;;;;;;;5057037;28;20482;-68
2021/10/09 04:55:55;;;;;;;40.60;26.35;;;;;;;;;;5059491;28;20075;-68
2021/10/09 04:58:21;;;;;;;38.17;25.08;;;;;;;;;;5065478;28;20091;-68
2021/10/09 05:00:51;;;;;;;38.40;26.67;;;;;;;;;;5059000;28;20609;-68
2021/10/09 05:03:18;;;;;;;37.45;26.90;;;;;;;;;;5066206;28;20040;-68
2021/10/09 05:05:44;;;;;;;40.03;26.00;;;;;;;;;;5060093;28;20080;-68
2021/10/09 05:08:11;;;;;;;40.58;26.63;;;;;;;;;;5059928;28;20505;-68
2021/10/09 05:10:38;;;;;;;42.47;27.27;;;;;;;;;;5056096;28;20678;-68
2021/10/09 05:13:05;;;;;;;44.13;26.45;;;;;;;;;;5063291;28;20132;-68
2021/10/09 05:15:32;;;;;;;46.03;27.35;;;;;;;;;;5061212;28;20730;-68
2021/10/09 05:17:58;;;;;;;42.90;27.63;;;;;;;;;;5044388;28;20153;-68
2021/10/09 05:20:26;;;;;;;44.15;26.40;;;;;;;;;;5043556;28;20128;-68
2021/10/09 05:22:52;;;;;;;41.15;26.77;;;;;;;;;;5041228;28;20069;-68
2021/10/09 05:25:23;;;;;;;43.53;28.00;;;;;;;;;;5038349;28;20046;-68
2021/10/09 05:28:04;;;;;;;49.28;28.33;;;;;;;;;;5043010;28;20131;-68
2021/10/09 05:30:33;;;;;;;52.28;28.52;;;;;;;;;;5038041;28;20131;-68
2021/10/09 05:33:13;;;;;;;38.72;24.23;;;;;;;;;;5038785;28;20045;-68
2021/10/09 05:35:40;;;;;;;40.30;27.35;;;;;;;;;;5036456;28;20128;-68
2021/10/09 05:38:07;;;;;;;51.08;27.83;;;;;;;;;;5037526;28;20141;-68
2021/10/09 05:40:34;;;;;;;45.63;27.88;;;;;;;;;;5044295;28;20055;-68
2021/10/09 05:43:01;;;;;;;48.30;27.92;;;;;;;;;;5041978;28;20133;-68
2021/10/09 05:45:27;;;;;;;38.08;24.65;;;;;;;;;;5040546;28;20085;-68
2021/10/09 05:47:54;;;;;;;42.20;27.92;;;;;;;;;;5045944;28;20053;-68
2021/10/09 05:50:25;;;;;;;47.45;28.80;;;;;;;;;;5042679;28;20140;-68
2021/10/09 05:55:58;;;;;;;45.65;29.23;;;;;;;;;;5041155;28;20075;-68
2021/10/09 06:45:05;;;;;;;37.13;25.40;;;;;;;;;;5056924;28;20454;-68
2021/10/09 06:47:37;;;;;;;39.92;27.00;;;;;;;;;;5063463;28;20052;-68
2021/10/09 07:01:17;;;;;;;34.33;22.85;;;;;;;;;;4987219;28;20081;-68
2021/10/09 07:03:43;;;;;;;42.03;25.30;;;;;;;;;;4988771;28;20097;-68
2021/10/09 07:06:10;;;;;;;39.40;24.80;;;;;;;;;;5023607;28;20191;-68
2021/10/09 07:08:37;;;;;;;43.20;26.17;;;;;;;;;;5060929;28;20582;-68
2021/10/09 07:11:04;;;;;;;39.05;25.10;;;;;;;;;;5063558;28;20140;-68
2021/10/09 07:13:30;;;;;;;40.50;25.08;;;;;;;;;;5066504;28;20132;-68
2021/10/09 07:15:57;;;;;;;43.58;25.15;;;;;;;;;;5064522;28;20585;-68
2021/10/09 07:18:23;;;;;;;37.97;24.80;;;;;;;;;;5066718;28;20060;-68
2021/10/09 07:20:49;;;;;;;36.72;24.65;;;;;;;;;;5066756;28;20076;-69
2021/10/09 07:23:16;;;;;;;35.25;24.05;;;;;;;;;;5063984;28;20068;-68
2021/10/09 07:25:42;;;;;;;42.80;25.65;;;;;;;;;;5066621;28;20068;-68
2021/10/09 07:28:09;;;;;;;43.35;23.40;;;;;;;;;;5065668;28;20131;-68
2021/10/09 07:30:35;;;;;;;36.97;24.38;;;;;;;;;;5063353;28;20411;-69
2021/10/09 07:33:02;;;;;;;42.58;23.45;;;;;;;;;;5062573;28;20156;-68
2021/10/09 07:35:28;;;;;;;40.60;24.13;;;;;;;;;;5051865;28;20076;-68
2021/10/09 07:37:55;;;;;;;34.33;22.52;;;;;;;;;;5065624;28;20080;-68
2021/10/09 07:40:21;;;;;;;38.08;22.70;;;;;;;;;;5064106;28;20048;-68
2021/10/09 07:42:48;;;;;;;37.80;22.23;;;;;;;;;;5062254;28;20140;-68
2021/10/09 07:45:14;;;;;;;42.28;23.95;;;;;;;;;;5062365;28;20052;-68
2021/10/09 07:47:41;;;;;;;36.92;22.38;;;;;;;;;;5063642;28;20091;-68
2021/10/09 07:50:10;;;;;;;39.50;24.80;;;;;;;;;;5062560;28;20106;-68
2021/10/09 07:52:36;;;;;;;31.10;21.35;;;;;;;;;;5063576;28;20140;-69
2021/10/09 07:55:03;;;;;;;33.47;22.95;;;;;;;;;;5068846;28;20802;-68
2021/10/09 07:57:30;;;;;;;35.47;21.95;;;;;;;;;;5069563;28;20151;-68
2021/10/09 07:59:56;;;;;;;28.02;21.70;;;;;;;;;;5063017;28;20051;-68
2021/10/09 08:02:23;;;;;;;33.05;22.25;;;;;;;;;;5066226;28;20577;-68
2021/10/09 08:04:51;;;;;;;37.85;22.48;;;;;;;;;;5063581;28;20060;-68
2021/10/09 08:07:18;;;;;;;32.20;21.33;;;;;;;;;;5058321;28;20123;-68
2021/10/09 08:09:44;;;;;;;32.22;20.10;;;;;;;;;;5062407;28;20084;-68
2021/10/09 08:12:10;;;;;;;34.33;22.13;;;;;;;;;;5062318;28;20483;-68
2021/10/09 08:14:37;;;;;;;32.63;20.52;;;;;;;;;;5066836;28;20480;-68
2021/10/09 08:17:04;;;;;;;30.25;20.35;;;;;;;;;;5063174;28;20611;-68
2021/10/09 08:19:31;;;;;;;26.70;18.67;;;;;;;;;;5065296;28;20472;-68
2021/10/09 08:22:01;;;;;;;29.02;19.33;;;;;;;;;;5062193;28;20123;-68
2021/10/09 08:24:34;;;;;;;32.10;19.30;;;;;;;;;;5061696;28;20139;-68
2021/10/09 08:40:15;;;;;;;23.05;17.40;;;;;;;;;;5060444;28;20045;-68
2021/10/09 08:42:42;;;;;;;23.70;16.58;;;;;;;;;;5050949;28;20072;-68
2021/10/09 08:45:10;;;;;;;25.52;16.92;;;;;;;;;;5061932;28;20059;-69
2021/10/09 08:47:38;;;;;;;23.05;15.50;;;;;;;;;;5062034;28;20467;-68
2021/10/09 08:50:06;;;;;;;24.52;17.27;;;;;;;;;;5058954;28;20480;-68
2021/10/09 08:52:33;;;;;;;22.73;15.65;;;;;;;;;;5063780;28;20063;-68
2021/10/09 08:55:22;;;;;;;22.98;15.27;;;;;;;;;;5056024;28;20123;-68
2021/10/09 08:57:49;;;;;;;21.58;15.15;;;;;;;;;;5062403;28;20091;-68
2021/10/09 09:00:34;;;;;;;23.70;13.77;;;;;;;;;;5062877;28;20048;-69
2021/10/09 09:03:05;;;;;;;25.95;13.73;;;;;;;;;;5058328;28;20041;-68
2021/10/09 09:05:45;;;;;;;19.17;12.88;;;;;;;;;;5063487;28;20084;-68
2021/10/09 09:31:12;;;;;;;17.42;11.18;;;;;;;;;;5062486;28;20139;-69
2021/10/09 09:33:55;;;;;;;20.25;11.20;;;;;;;;;;5062580;28;20041;-68
2021/10/09 09:39:09;;;;;;;15.73;10.50;;;;;;;;;;5061776;28;20661;-69
2021/10/09 09:41:44;;;;;;;12.52;9.95;;;;;;;;;;5060621;28;20072;-68
2021/10/09 09:44:12;;;;;;;13.82;9.85;;;;;;;;;;5063974;28;20056;-68
2021/10/09 09:46:38;;;;;;;;;;;;;;;;;;5064064;28;20128;-68
2021/10/09 09:49:05;;;;;;;11.48;8.75;;;;;;;;;;5064371;28;19925;-68
2021/10/09 09:51:38;;;;;;;15.15;9.98;;;;;;;;;;5064650;28;20497;-68
2021/10/09 09:54:05;;;;;;;12.43;8.98;;;;;;;;;;5064820;28;20496;-68
2021/10/09 09:56:31;;;;;;;16.73;9.07;;;;;;;;;;5067886;28;20443;-68
2021/10/09 09:58:59;;;;;;;11.00;8.05;;;;;;;;;;5066604;28;20131;-68
2021/10/09 10:01:30;;;;;;;10.70;7.78;;;;;;;;;;5064547;28;20090;-68
2021/10/09 10:03:57;;;;;;;11.30;7.50;;;;;;;;;;5069289;28;20404;-68
2021/10/09 10:06:24;;;;;;;;;;;;;;;;;;5061384;28;20088;-68
2021/10/09 10:08:50;;;;;;;10.77;6.50;;;;;;;;;;5062822;28;20020;-68
2021/10/09 10:11:18;;;;;;;11.45;6.60;;;;;;;;;;5058584;28;20458;-68
2021/10/09 10:13:45;;;;;;;8.80;5.72;;;;;;;;;;5067564;28;20497;-69
2021/10/09 10:16:12;;;;;;;8.47;5.83;;;;;;;;;;5064776;28;20107;-68
2021/10/09 10:18:45;;;;;;;10.95;5.47;;;;;;;;;;5066319;28;20303;-68
2021/10/09 10:21:12;;;;;;;9.52;5.40;;;;;;;;;;5070062;28;20072;-68
2021/10/09 10:23:41;;;;;;;6.57;5.20;;;;;;;;;;5065699;28;20493;-68
2021/10/09 10:26:34;;;;;;;7.38;4.85;;;;;;;;;;5067245;28;20094;-68
2021/10/09 10:29:03;;;;;;;10.05;4.78;;;;;;;;;;5062549;28;20630;-68
2021/10/09 10:31:30;;;;;;;9.75;4.68;;;;;;;;;;5063032;28;20131;-68
2021/10/09 10:34:15;;;;;;;10.10;4.60;;;;;;;;;;5065319;28;20075;-68
2021/10/09 10:36:44;;;;;;;8.40;4.40;;;;;;;;;;5063121;28;20132;-68
2021/10/09 10:39:12;;;;;;;6.03;4.22;;;;;;;;;;5066877;28;20084;-68
2021/10/09 10:41:39;;;;;;;9.27;5.18;;;;;;;;;;5063493;28;20492;-68
2021/10/09 10:44:08;;;;;;;;;;;;;;;;;;5063790;28;20135;-68
2021/10/09 10:46:39;;;;;;;8.38;4.60;;;;;;;;;;5062002;28;19963;-68
2021/10/09 10:51:48;;;;;;;4.95;3.50;;;;;;;;;;5063847;28;20053;-68
2021/10/09 10:56:56;;;;;;;8.77;4.50;;;;;;;;;;5062673;28;20076;-69
2021/10/09 10:59:26;;;;;;;9.15;3.95;;;;;;;;;;5059526;28;20049;-68
2021/10/09 11:02:11;;;;;;;12.35;3.97;;;;;;;;;;5059849;28;20483;-68
2021/10/09 11:04:39;;;;;;;7.43;3.90;;;;;;;;;;5057986;28;20044;-68
2021/10/09 11:07:06;;;;;;;8.55;3.60;;;;;;;;;;5060419;28;20072;-68
2021/10/09 11:09:38;;;;;;;6.38;3.60;;;;;;;;;;5064253;28;20132;-68
2021/10/09 11:12:17;;;;;;;5.93;3.20;;;;;;;;;;5061469;28;20147;-69
2021/10/09 11:14:43;;;;;;;7.38;3.63;;;;;;;;;;5062739;28;20120;-69
2021/10/09 11:17:10;;;;;;;6.65;4.18;;;;;;;;;;5067057;28;20060;-69
2021/10/09 11:19:50;;;;;;;9.93;4.03;;;;;;;;;;5064589;28;20136;-69
2021/10/09 11:22:20;;;;;;;9.75;3.97;;;;;;;;;;5063385;28;20133;-68
2021/10/09 11:24:47;;;;;;;5.85;4.05;;;;;;;;;;5058341;28;20111;-69
2021/10/09 11:27:15;;;;;;;9.05;4.10;;;;;;;;;;5063126;28;20139;-68
2021/10/09 11:29:42;;;;;;;11.73;4.65;;;;;;;;;;5058394;28;20091;-68
2021/10/09 11:32:10;;;;;;;8.20;4.25;;;;;;;;;;5062332;28;20134;-68
2021/10/09 11:34:48;;;;;;;7.18;4.30;;;;;;;;;;5060978;28;20096;-68
2021/10/09 11:37:16;;;;;;;6.72;4.03;;;;;;;;;;5063197;28;20045;-69
2021/10/09 11:39:50;;;;;;;10.38;4.85;;;;;;;;;;5060562;28;20072;-68
2021/10/09 11:42:19;;;;;;;5.38;4.32;;;;;;;;;;5063559;28;20135;-69
2021/10/09 11:44:58;;;;;;;12.85;4.45;;;;;;;;;;5057362;28;20127;-68
2021/10/09 11:53:28;;;;;;;9.23;5.38;;;;;;;;;;5060089;28;20488;-69
2021/10/09 11:56:03;;;;;;;9.70;4.82;;;;;;;;;;5057199;28;20496;-68
2021/10/09 11:58:29;;;;;;;8.27;5.20;;;;;;;;;;5061176;28;20087;-69
2021/10/09 12:00:56;;;;;;;11.52;5.65;;;;;;;;;;5060643;28;20048;-68
2021/10/09 12:03:26;;;;;;;11.00;5.38;;;;;;;;;;5059501;28;20135;-68
2021/10/09 12:05:56;;;;;;;6.53;4.70;;;;;;;;;;5063485;28;20139;-68
2021/10/09 12:08:31;;;;;;;14.00;5.13;;;;;;;;;;5061621;28;20139;-68
2021/10/09 12:11:11;;;;;;;10.35;5.18;;;;;;;;;;5064209;28;20143;-68
2021/10/09 12:13:57;;;;;;;9.70;4.97;;;;;;;;;;5064402;28;20083;-68
2021/10/09 12:16:34;;;;;;;13.48;4.78;;;;;;;;;;5065967;28;20139;-68
2021/10/09 12:19:05;;;;;;;7.93;5.43;;;;;;;;;;5059506;28;20143;-69
2021/10/09 12:21:39;;;;;;;8.80;5.45;;;;;;;;;;5060402;28;20067;-68
2021/10/09 12:24:34;;;;;;;11.77;5.60;;;;;;;;;;5062981;28;20136;-68
2021/10/09 12:27:01;;;;;;;9.95;4.85;;;;;;;;;;5045064;28;20141;-69
2021/10/09 12:29:28;;;;;;;7.60;4.97;;;;;;;;;;5061912;28;20064;-69
2021/10/09 12:31:56;;;;;;;11.68;4.50;;;;;;;;;;5061644;28;20311;-68
2021/10/09 12:34:26;;;;;;;12.50;5.38;;;;;;;;;;5062910;28;20052;-68
2021/10/09 12:37:14;;;;;;;9.00;4.60;;;;;;;;;;5062610;28;20052;-68
2021/10/09 12:39:41;;;;;;;6.03;4.07;;;;;;;;;;5064516;28;20127;-68
2021/10/09 12:42:09;;;;;;;5.60;4.60;;;;;;;;;;5064133;28;20128;-68
2021/10/09 12:44:35;;;;;;;7.75;4.75;;;;;;;;;;5063086;28;20382;-69
2021/10/09 12:47:02;;;;;;;8.70;4.70;;;;;;;;;;5060414;28;20076;-68
2021/10/09 12:49:28;;;;;;;6.75;5.07;;;;;;;;;;5063718;28;20076;-68
2021/10/09 12:51:55;;;;;;;6.55;4.85;;;;;;;;;;5058463;28;20560;-68
2021/10/09 12:54:24;;;;;;;7.18;4.22;;;;;;;;;;5058872;28;20127;-68
2021/10/09 12:56:50;;;;;;;7.97;5.05;;;;;;;;;;5063257;28;20072;-68
2021/10/09 12:59:17;;;;;;;7.47;4.95;;;;;;;;;;5066024;28;20084;-68
2021/10/09 13:01:44;;;;;;;7.70;4.80;;;;;;;;;;5067261;28;20080;-68
2021/10/09 13:04:11;;;;;;;9.18;5.30;;;;;;;;;;5060736;28;20060;-68
2021/10/09 13:06:37;;;;;;;8.50;5.07;;;;;;;;;;5058543;28;20493;-68
2021/10/09 13:09:04;;;;;;;11.65;5.63;;;;;;;;;;5063577;28;20084;-68
2021/10/09 13:11:42;;;;;;;7.68;5.10;;;;;;;;;;5056345;28;20115;-69
2021/10/09 13:14:09;;;;;;;8.50;5.18;;;;;;;;;;5062532;28;20136;-68
2021/10/09 13:16:36;;;;;;;9.00;5.88;;;;;;;;;;5056015;28;20132;-68
2021/10/09 13:19:02;;;;;;;11.02;6.18;;;;;;;;;;5062581;28;20581;-68
2021/10/09 13:21:29;;;;;;;9.35;5.65;;;;;;;;;;5070789;28;20079;-68
2021/10/09 13:23:56;;;;;;;8.73;5.22;;;;;;;;;;5067409;28;20048;-68
2021/10/09 13:26:22;;;;;;;8.43;5.13;;;;;;;;;;5066526;28;20075;-68
2021/10/09 13:28:49;;;;;;;11.90;5.93;;;;;;;;;;5062826;28;20075;-69
2021/10/09 13:31:15;;;;;;;10.65;6.00;;;;;;;;;;5069368;28;20129;-68
2021/10/09 13:33:41;;;;;;;8.55;6.15;;;;;;;;;;5065131;28;20143;-68
2021/10/09 13:36:08;;;;;;;7.75;6.10;;;;;;;;;;5061866;28;20052;-68
2021/10/09 13:38:35;;;;;;;9.18;5.65;;;;;;;;;;5065064;28;20079;-68
2021/10/09 13:41:01;;;;;;;7.93;5.70;;;;;;;;;;5062411;28;20052;-68
2021/10/09 13:43:28;;;;;;;8.07;6.05;;;;;;;;;;5061647;28;20155;-68
2021/10/09 13:45:54;;;;;;;6.88;5.30;;;;;;;;;;5064247;28;20098;-68
2021/10/09 13:48:21;;;;;;;7.07;5.30;;;;;;;;;;5064620;28;20538;-68
2021/10/09 13:50:50;;;;;;;7.43;5.40;;;;;;;;;;5064439;28;20073;-68
2021/10/09 13:53:17;;;;;;;10.98;5.65;;;;;;;;;;5064514;28;20132;-69
2021/10/09 13:55:43;;;;;;;7.10;5.05;;;;;;;;;;5068956;28;20123;-68
2021/10/09 13:58:11;;;;;;;9.48;5.65;;;;;;;;;;5064512;28;20132;-68
2021/10/09 14:00:38;;;;;;;8.38;5.40;;;;;;;;;;5069930;28;20766;-68
2021/10/09 14:03:05;;;;;;;10.15;5.68;;;;;;;;;;5065003;28;20564;-68
2021/10/09 14:05:33;;;;;;;8.82;5.57;;;;;;;;;;5063733;28;20044;-68
2021/10/09 14:08:00;;;;;;;13.23;6.10;;;;;;;;;;5066917;28;20071;-68
2021/10/09 14:10:26;;;;;;;8.55;5.65;;;;;;;;;;5065174;28;20041;-68
2021/10/09 14:12:53;;;;;;;9.70;5.97;;;;;;;;;;5061297;28;20059;-68
2021/10/09 14:15:19;;;;;;;7.85;5.75;;;;;;;;;;5065984;28;20114;-68
2021/10/09 14:17:46;;;;;;;9.45;6.55;;;;;;;;;;5054611;28;20052;-68
2021/10/09 14:20:13;;;;;;;10.45;5.80;;;;;;;;;;5051602;28;20516;-68
2021/10/09 14:22:40;;;;;;;8.15;7.00;;;;;;;;;;5041719;28;20045;-68
2021/10/09 14:25:07;;;;;;;10.33;6.67;;;;;;;;;;5042375;28;20049;-67
2021/10/09 14:27:34;;;;;;;10.68;6.47;;;;;;;;;;5044560;28;20048;-68
2021/10/09 14:30:00;;;;;;;7.97;6.03;;;;;;;;;;5042735;28;20132;-68
2021/10/09 14:32:28;;;;;;;7.75;6.57;;;;;;;;;;5045714;28;20133;-67
2021/10/09 14:34:55;;;;;;;8.60;6.55;;;;;;;;;;5046702;28;20155;-68
2021/10/09 14:37:21;;;;;;;9.15;6.40;;;;;;;;;;5039424;28;20119;-67
2021/10/09 14:39:47;;;;;;;8.85;6.80;;;;;;;;;;5041896;28;20077;-67
2021/10/09 14:42:15;;;;;;;10.80;7.20;;;;;;;;;;5045986;28;20060;-68
2021/10/09 14:44:42;;;;;;;12.65;7.07;;;;;;;;;;5043498;28;20483;-68
2021/10/09 14:49:58;;;;;;;12.48;6.53;;;;;;;;;;5040089;28;20477;-67
2021/10/09 14:52:39;;;;;;;11.98;6.90;;;;;;;;;;5038673;28;20565;-68
2021/10/09 14:55:34;;;;;;;11.02;7.07;;;;;;;;;;5042142;28;20156;-67
2021/10/09 15:19:47;;;;;;;8.23;6.97;;;;;;;;;;5039115;28;20521;-68
2021/10/09 15:22:14;;;;;;;8.82;7.07;;;;;;;;;;5042789;28;20076;-67
2021/10/09 15:24:40;;;;;;;11.80;7.67;;;;;;;;;;5046934;28;20132;-67
2021/10/09 15:27:07;;;;;;;11.20;7.28;;;;;;;;;;5047197;28;20649;-68
2021/10/09 15:29:33;;;;;;;10.32;7.18;;;;;;;;;;5047907;28;20132;-68
2021/10/09 15:32:00;;;;;;;11.88;6.85;;;;;;;;;;5043443;28;20139;-68
2021/10/09 15:34:27;;;;;;;11.75;7.40;;;;;;;;;;5044573;28;20083;-68
2021/10/09 15:36:53;;;;;;;12.75;6.55;;;;;;;;;;5048358;28;20111;-68
2021/10/09 15:39:20;;;;;;;11.45;7.80;;;;;;;;;;5042734;28;20122;-67
2021/10/09 15:41:46;;;;;;;11.25;7.50;;;;;;;;;;5043366;28;20545;-68
2021/10/09 15:44:12;;;;;;;9.35;7.10;;;;;;;;;;5036538;28;20136;-67
2021/10/09 15:46:40;;;;;;;9.90;7.07;;;;;;;;;;5039460;28;20140;-68
2021/10/09 15:49:07;;;;;;;10.85;7.53;;;;;;;;;;5045902;28;20512;-68
2021/10/09 15:51:33;;;;;;;11.82;7.32;;;;;;;;;;5045603;28;20053;-68
2021/10/09 15:54:00;;;;;;;9.10;7.83;;;;;;;;;;5046644;28;20057;-67
2021/10/09 15:56:26;;;;;;;7.97;6.65;;;;;;;;;;5039243;28;20087;-67
2021/10/09 15:58:54;;;;;;;12.35;7.72;;;;;;;;;;5048013;28;20136;-68
2021/10/09 16:01:22;;;;;;;;;;;;;;;;;;5040164;28;20045;-67
2021/10/09 16:03:49;;;;;;;12.05;7.70;;;;;;;;;;5045516;28;20342;-67
2021/10/09 16:06:15;;;;;;;11.32;7.88;;;;;;;;;;5033812;28;20489;-67
2021/10/09 16:08:42;;;;;;;9.13;7.43;;;;;;;;;;5024331;28;20133;-68
2021/10/09 16:11:28;;;;;;;12.32;8.07;;;;;;;;;;5038936;28;20049;-68
2021/10/09 16:13:57;;;;;;;11.27;8.70;;;;;;;;;;5043059;28;20049;-68
2021/10/09 16:16:23;;;;;;;15.32;8.18;;;;;;;;;;5043932;28;20127;-67
2021/10/09 16:18:49;;;;;;;17.58;9.23;;;;;;;;;;5055767;28;20076;-69
2021/10/09 16:21:16;;;;;;;12.18;9.05;;;;;;;;;;5060676;28;20110;-68
2021/10/09 16:23:43;;;;;;;18.65;9.63;;;;;;;;;;5062484;28;20099;-68
2021/10/09 16:26:09;;;;;;;13.65;10.00;;;;;;;;;;5060541;28;20106;-67
2021/10/09 16:28:36;;;;;;;14.48;10.32;;;;;;;;;;5060502;28;20091;-68
2021/10/09 16:31:02;;;;;;;12.18;8.98;;;;;;;;;;5063396;28;20489;-68
2021/10/09 16:33:29;;;;;;;14.23;10.73;;;;;;;;;;5063301;28;20106;-67
2021/10/09 16:35:56;;;;;;;12.70;9.68;;;;;;;;;;5060061;28;20394;-67
2021/10/09 16:38:23;;;;;;;12.30;10.10;;;;;;;;;;5058884;28;20486;-67
2021/10/09 16:40:50;;;;;;;15.47;10.40;;;;;;;;;;5059335;28;20080;-68
2021/10/09 16:43:16;;;;;;;13.73;10.55;;;;;;;;;;5059596;28;20051;-67
2021/10/09 16:45:43;;;;;;;15.13;10.93;;;;;;;;;;5065085;28;20139;-67
2021/10/09 16:48:09;;;;;;;16.58;11.70;;;;;;;;;;5059372;28;20049;-68
2021/10/09 16:50:36;;;;;;;19.43;11.03;;;;;;;;;;5061860;28;20592;-67
2021/10/09 16:53:02;;;;;;;16.60;10.82;;;;;;;;;;5059485;28;20128;-67
2021/10/09 16:55:31;;;;;;;18.42;11.23;;;;;;;;;;5062212;28;20646;-68
2021/10/09 16:57:58;;;;;;;21.05;11.55;;;;;;;;;;5061099;28;20509;-68
2021/10/09 17:00:24;;;;;;;16.17;12.10;;;;;;;;;;5064346;28;20099;-68
2021/10/09 17:02:51;;;;;;;17.27;11.48;;;;;;;;;;5056273;28;20137;-68